Archival Weather

Fukuoka

Fukuoka, Japan (RJFF)

Report from: Tuesday, August 16, 2022 11:00 PM JST
Current time: Sunday, November 27, 2022 6:25 PM JST

Current weather
Weather history
Weather forecast

Temperature27.0°C (80.6°F)
Heat index31.1°C (87.9°F)
Dew point26.0°C (78.8°F)
Winds 9 kts (4.6 m/s, 10.4 mph) South-Southeast (150°)
Visibility6.2 mi. (10 km)
Clouds Few clouds 4,400 ft. (1,341 m)
Ceiling: Broken clouds 5,000 ft. (1,524 m)
Broken clouds 6,000 ft. (1,829 m)
Altimeter29.77 in.Hg (1008 mB)
Relative humidity94 %
Density altitude2,008 ft. (612 m)
Remarks Fully automated report
No significant changes expected in the next two hours
Flight conditions Visual Meteorological Conditions
Raw dataRJFF 161400Z AUTO 15009KT 9999 FEW044 BKN050 BKN060 //////CB 27/26 Q1008 NOSIG
An error has occurred. This application may no longer respond until reloaded. Reload 🗙